sensor_id;sensor_type;location;lat;lon;timestamp;pressure;altitude;pressure_sealevel;temperature;humidity
43691;BME280;29293;52.190;21.226;2023-03-29T00:14:46;100758.51;;;-3.51;100.00
43691;BME280;29293;52.190;21.226;2023-03-29T00:29:53;100761.12;;;-3.60;100.00
43691;BME280;29293;52.190;21.226;2023-03-29T00:45:01;100756.16;;;-3.67;100.00
43691;BME280;29293;52.190;21.226;2023-03-29T01:00:11;100761.86;;;-3.72;100.00
43691;BME280;29293;52.190;21.226;2023-03-29T01:15:22;100763.59;;;-3.85;100.00
43691;BME280;29293;52.190;21.226;2023-03-29T01:30:36;100765.09;;;-4.01;100.00
43691;BME280;29293;52.190;21.226;2023-03-29T01:45:48;100767.04;;;-4.13;100.00
43691;BME280;29293;52.190;21.226;2023-03-29T02:00:58;100772.49;;;-4.31;100.00
43691;BME280;29293;52.190;21.226;2023-03-29T02:16:10;100781.55;;;-4.47;100.00
43691;BME280;29293;52.190;21.226;2023-03-29T02:31:20;100788.35;;;-4.61;100.00
43691;BME280;29293;52.190;21.226;2023-03-29T02:46:31;100786.14;;;-4.74;100.00
43691;BME280;29293;52.190;21.226;2023-03-29T03:01:38;100790.83;;;-4.88;100.00
43691;BME280;29293;52.190;21.226;2023-03-29T03:16:47;100795.48;;;-5.02;100.00
43691;BME280;29293;52.190;21.226;2023-03-29T03:31:54;100797.70;;;-5.12;100.00
43691;BME280;29293;52.190;21.226;2023-03-29T03:47:02;100798.98;;;-5.17;100.00
43691;BME280;29293;52.190;21.226;2023-03-29T04:02:10;100807.69;;;-5.23;100.00
43691;BME280;29293;52.190;21.226;2023-03-29T04:17:17;100820.11;;;-5.29;100.00
43691;BME280;29293;52.190;21.226;2023-03-29T04:32:25;100832.23;;;-5.31;100.00
43691;BME280;29293;52.190;21.226;2023-03-29T04:47:32;100840.23;;;-5.29;100.00
43691;BME280;29293;52.190;21.226;2023-03-29T05:02:41;100835.03;;;-5.23;100.00
43691;BME280;29293;52.190;21.226;2023-03-29T05:17:49;100837.21;;;-5.00;100.00
43691;BME280;29293;52.190;21.226;2023-03-29T05:32:55;100841.38;;;-4.54;100.00
43691;BME280;29293;52.190;21.226;2023-03-29T05:48:02;100841.90;;;-3.78;100.00
43691;BME280;29293;52.190;21.226;2023-03-29T06:03:15;100846.20;;;-3.07;100.00
43691;BME280;29293;52.190;21.226;2023-03-29T06:18:24;100850.52;;;-2.60;100.00
43691;BME280;29293;52.190;21.226;2023-03-29T06:33:32;100852.77;;;-2.13;100.00
43691;BME280;29293;52.190;21.226;2023-03-29T06:48:42;100855.27;;;-1.50;100.00
43691;BME280;29293;52.190;21.226;2023-03-29T07:03:50;100861.36;;;-0.63;100.00
43691;BME280;29293;52.190;21.226;2023-03-29T07:18:57;100855.32;;;0.11;100.00
43691;BME280;29293;52.190;21.226;2023-03-29T07:34:04;100854.41;;;0.74;100.00
43691;BME280;29293;52.190;21.226;2023-03-29T07:49:11;100848.44;;;1.37;100.00
43691;BME280;29293;52.190;21.226;2023-03-29T08:04:18;100848.15;;;1.99;100.00
43691;BME280;29293;52.190;21.226;2023-03-29T08:19:26;100836.80;;;2.49;100.00
43691;BME280;29293;52.190;21.226;2023-03-29T08:34:33;100832.30;;;3.02;100.00
43691;BME280;29293;52.190;21.226;2023-03-29T08:49:42;100826.65;;;3.25;100.00
43691;BME280;29293;52.190;21.226;2023-03-29T09:04:54;100813.94;;;3.69;100.00
43691;BME280;29293;52.190;21.226;2023-03-29T09:20:14;100805.15;;;4.05;98.01
43691;BME280;29293;52.190;21.226;2023-03-29T09:35:29;100800.61;;;4.43;90.72
43691;BME280;29293;52.190;21.226;2023-03-29T09:50:40;100788.35;;;4.71;81.58
43691;BME280;29293;52.190;21.226;2023-03-29T10:05:50;100775.39;;;5.15;74.04
43691;BME280;29293;52.190;21.226;2023-03-29T10:21:01;100775.80;;;5.24;61.87
43691;BME280;29293;52.190;21.226;2023-03-29T10:36:12;100769.39;;;5.47;49.09
43691;BME280;29293;52.190;21.226;2023-03-29T10:51:20;100758.92;;;5.74;42.62
43691;BME280;29293;52.190;21.226;2023-03-29T11:06:33;100754.95;;;5.96;41.04
43691;BME280;29293;52.190;21.226;2023-03-29T11:21:47;100746.21;;;6.34;40.05
43691;BME280;29293;52.190;21.226;2023-03-29T11:37:02;100731.75;;;6.62;40.25
43691;BME280;29293;52.190;21.226;2023-03-29T11:52:17;100720.56;;;6.95;39.70
43691;BME280;29293;52.190;21.226;2023-03-29T12:07:30;100712.39;;;7.20;40.19
43691;BME280;29293;52.190;21.226;2023-03-29T12:22:38;100688.96;;;7.51;38.50
43691;BME280;29293;52.190;21.226;2023-03-29T12:37:53;100681.27;;;7.52;36.59
43691;BME280;29293;52.190;21.226;2023-03-29T12:53:06;100668.34;;;7.67;36.07
43691;BME280;29293;52.190;21.226;2023-03-29T13:08:31;100663.09;;;7.92;35.02
43691;BME280;29293;52.190;21.226;2023-03-29T13:23:47;100657.73;;;8.13;35.06
43691;BME280;29293;52.190;21.226;2023-03-29T13:39:02;100646.94;;;8.36;35.39
43691;BME280;29293;52.190;21.226;2023-03-29T13:54:22;100634.48;;;8.26;34.77
43691;BME280;29293;52.190;21.226;2023-03-29T14:09:32;100633.01;;;8.01;33.42
43691;BME280;29293;52.190;21.226;2023-03-29T14:24:46;100617.00;;;7.86;33.38
43691;BME280;29293;52.190;21.226;2023-03-29T14:39:54;100601.77;;;7.93;32.94
43691;BME280;29293;52.190;21.226;2023-03-29T14:55:02;100596.87;;;8.02;33.18
43691;BME280;29293;52.190;21.226;2023-03-29T15:10:17;100590.20;;;7.71;32.90
43691;BME280;29293;52.190;21.226;2023-03-29T15:25:30;100588.20;;;7.21;33.80
43691;BME280;29293;52.190;21.226;2023-03-29T15:40:38;100586.44;;;6.64;35.79
43691;BME280;29293;52.190;21.226;2023-03-29T15:55:48;100583.34;;;6.26;37.45
43691;BME280;29293;52.190;21.226;2023-03-29T16:10:56;100577.75;;;6.15;39.18
43691;BME280;29293;52.190;21.226;2023-03-29T16:26:04;100567.70;;;6.05;39.33
43691;BME280;29293;52.190;21.226;2023-03-29T16:41:14;100560.33;;;5.66;40.37
43691;BME280;29293;52.190;21.226;2023-03-29T16:56:22;100552.27;;;5.08;41.67
43691;BME280;29293;52.190;21.226;2023-03-29T17:11:29;100539.61;;;4.42;44.52
43691;BME280;29293;52.190;21.226;2023-03-29T17:26:36;100543.70;;;3.71;47.70
43691;BME280;29293;52.190;21.226;2023-03-29T17:41:44;100548.13;;;3.02;50.14
43691;BME280;29293;52.190;21.226;2023-03-29T17:56:51;100556.79;;;2.35;53.50
43691;BME280;29293;52.190;21.226;2023-03-29T18:11:59;100568.30;;;1.87;55.26
43691;BME280;29293;52.190;21.226;2023-03-29T18:27:06;100572.19;;;1.59;57.71
43691;BME280;29293;52.190;21.226;2023-03-29T18:42:14;100560.04;;;1.50;59.84
43691;BME280;29293;52.190;21.226;2023-03-29T18:57:22;100560.05;;;1.42;63.12
43691;BME280;29293;52.190;21.226;2023-03-29T19:12:29;100560.20;;;1.43;65.53
43691;BME280;29293;52.190;21.226;2023-03-29T19:27:38;100564.53;;;1.49;67.10
43691;BME280;29293;52.190;21.226;2023-03-29T19:42:45;100555.27;;;1.56;68.35
43691;BME280;29293;52.190;21.226;2023-03-29T19:57:53;100552.68;;;1.65;67.29
43691;BME280;29293;52.190;21.226;2023-03-29T20:13:00;100536.80;;;1.74;65.98
43691;BME280;29293;52.190;21.226;2023-03-29T20:28:08;100519.96;;;1.82;64.23
43691;BME280;29293;52.190;21.226;2023-03-29T20:43:17;100501.98;;;1.82;63.03
43691;BME280;29293;52.190;21.226;2023-03-29T20:58:25;100486.91;;;1.69;63.17
43691;BME280;29293;52.190;21.226;2023-03-29T21:13:33;100484.67;;;1.49;63.26
43691;BME280;29293;52.190;21.226;2023-03-29T21:28:41;100477.11;;;1.12;65.21
43691;BME280;29293;52.190;21.226;2023-03-29T21:43:48;100476.52;;;0.71;66.40
43691;BME280;29293;52.190;21.226;2023-03-29T21:58:55;100465.59;;;0.34;69.26
43691;BME280;29293;52.190;21.226;2023-03-29T22:14:03;100452.64;;;0.31;70.77
43691;BME280;29293;52.190;21.226;2023-03-29T22:29:12;100437.02;;;0.55;70.17
43691;BME280;29293;52.190;21.226;2023-03-29T22:44:19;100428.23;;;0.83;70.22
43691;BME280;29293;52.190;21.226;2023-03-29T22:59:26;100410.20;;;0.96;70.23
43691;BME280;29293;52.190;21.226;2023-03-29T23:14:34;100406.93;;;1.08;68.96
43691;BME280;29293;52.190;21.226;2023-03-29T23:29:42;100393.96;;;1.18;68.24
43691;BME280;29293;52.190;21.226;2023-03-29T23:44:50;100375.40;;;1.27;67.27
43691;BME280;29293;52.190;21.226;2023-03-29T23:59:57;100371.05;;;1.35;67.48
